sensor_id;sensor_type;location;lat;lon;timestamp;P1;durP1;ratioP1;P2;durP2;ratioP2
75810;SDS011;64449;50.016;19.954;2024-03-29T00:01:47;4.10;;;1.60;;
75810;SDS011;64449;50.016;19.954;2024-03-29T00:04:12;2.70;;;1.30;;
75810;SDS011;64449;50.016;19.954;2024-03-29T00:06:37;3.30;;;1.10;;
75810;SDS011;64449;50.016;19.954;2024-03-29T00:09:03;5.10;;;2.10;;
75810;SDS011;64449;50.016;19.954;2024-03-29T00:11:28;3.30;;;1.50;;
75810;SDS011;64449;50.016;19.954;2024-03-29T00:13:54;3.00;;;1.10;;
75810;SDS011;64449;50.016;19.954;2024-03-29T00:16:19;3.50;;;1.10;;
75810;SDS011;64449;50.016;19.954;2024-03-29T00:18:47;3.30;;;1.00;;
75810;SDS011;64449;50.016;19.954;2024-03-29T00:21:13;4.00;;;1.40;;
75810;SDS011;64449;50.016;19.954;2024-03-29T00:23:40;4.20;;;1.00;;
75810;SDS011;64449;50.016;19.954;2024-03-29T00:26:05;2.50;;;1.00;;
75810;SDS011;64449;50.016;19.954;2024-03-29T00:28:32;3.30;;;1.10;;
75810;SDS011;64449;50.016;19.954;2024-03-29T00:30:57;2.10;;;0.90;;
75810;SDS011;64449;50.016;19.954;2024-03-29T00:33:23;3.50;;;1.00;;
75810;SDS011;64449;50.016;19.954;2024-03-29T00:35:49;2.90;;;1.10;;
75810;SDS011;64449;50.016;19.954;2024-03-29T00:38:14;2.90;;;0.80;;
75810;SDS011;64449;50.016;19.954;2024-03-29T00:40:40;2.40;;;0.60;;
75810;SDS011;64449;50.016;19.954;2024-03-29T00:43:05;3.90;;;1.00;;
75810;SDS011;64449;50.016;19.954;2024-03-29T00:45:31;3.10;;;0.90;;
75810;SDS011;64449;50.016;19.954;2024-03-29T00:47:57;2.80;;;0.80;;
75810;SDS011;64449;50.016;19.954;2024-03-29T00:50:22;2.50;;;0.70;;
75810;SDS011;64449;50.016;19.954;2024-03-29T00:52:48;2.20;;;1.00;;
75810;SDS011;64449;50.016;19.954;2024-03-29T00:55:13;2.50;;;0.80;;
75810;SDS011;64449;50.016;19.954;2024-03-29T00:57:39;2.80;;;1.00;;
75810;SDS011;64449;50.016;19.954;2024-03-29T01:00:05;2.70;;;1.00;;
75810;SDS011;64449;50.016;19.954;2024-03-29T01:02:34;2.10;;;0.90;;
75810;SDS011;64449;50.016;19.954;2024-03-29T01:05:00;3.10;;;1.20;;
75810;SDS011;64449;50.016;19.954;2024-03-29T01:07:26;3.90;;;1.90;;
75810;SDS011;64449;50.016;19.954;2024-03-29T01:09:51;5.00;;;1.40;;
75810;SDS011;64449;50.016;19.954;2024-03-29T01:12:16;3.10;;;1.40;;
75810;SDS011;64449;50.016;19.954;2024-03-29T01:14:44;3.80;;;1.60;;
75810;SDS011;64449;50.016;19.954;2024-03-29T01:17:09;3.50;;;1.60;;
75810;SDS011;64449;50.016;19.954;2024-03-29T01:19:35;3.40;;;1.30;;
75810;SDS011;64449;50.016;19.954;2024-03-29T01:22:00;3.10;;;1.10;;
75810;SDS011;64449;50.016;19.954;2024-03-29T01:24:26;5.70;;;1.20;;
75810;SDS011;64449;50.016;19.954;2024-03-29T01:26:51;2.90;;;1.10;;
75810;SDS011;64449;50.016;19.954;2024-03-29T01:29:16;1.70;;;0.80;;
75810;SDS011;64449;50.016;19.954;2024-03-29T01:31:42;2.60;;;1.10;;
75810;SDS011;64449;50.016;19.954;2024-03-29T01:34:07;3.90;;;1.00;;
75810;SDS011;64449;50.016;19.954;2024-03-29T01:36:33;2.90;;;1.10;;
75810;SDS011;64449;50.016;19.954;2024-03-29T01:38:58;2.50;;;0.80;;
75810;SDS011;64449;50.016;19.954;2024-03-29T01:41:25;2.10;;;0.80;;
75810;SDS011;64449;50.016;19.954;2024-03-29T01:43:52;3.10;;;0.80;;
75810;SDS011;64449;50.016;19.954;2024-03-29T01:46:22;2.10;;;0.90;;
75810;SDS011;64449;50.016;19.954;2024-03-29T01:48:49;1.80;;;0.80;;
75810;SDS011;64449;50.016;19.954;2024-03-29T01:51:17;2.10;;;0.70;;
75810;SDS011;64449;50.016;19.954;2024-03-29T01:53:44;1.90;;;0.80;;
75810;SDS011;64449;50.016;19.954;2024-03-29T01:56:15;2.00;;;0.70;;
75810;SDS011;64449;50.016;19.954;2024-03-29T01:58:41;2.60;;;1.20;;
75810;SDS011;64449;50.016;19.954;2024-03-29T02:01:07;2.30;;;0.90;;
75810;SDS011;64449;50.016;19.954;2024-03-29T02:03:33;2.30;;;1.00;;
75810;SDS011;64449;50.016;19.954;2024-03-29T02:05:59;1.50;;;0.70;;
75810;SDS011;64449;50.016;19.954;2024-03-29T02:08:27;3.10;;;1.00;;
75810;SDS011;64449;50.016;19.954;2024-03-29T02:10:54;3.10;;;0.90;;
75810;SDS011;64449;50.016;19.954;2024-03-29T02:13:23;3.20;;;1.10;;
75810;SDS011;64449;50.016;19.954;2024-03-29T02:15:48;2.20;;;1.00;;
75810;SDS011;64449;50.016;19.954;2024-03-29T02:18:14;2.40;;;1.00;;
75810;SDS011;64449;50.016;19.954;2024-03-29T02:20:39;3.20;;;1.20;;
75810;SDS011;64449;50.016;19.954;2024-03-29T02:23:11;2.70;;;0.90;;
75810;SDS011;64449;50.016;19.954;2024-03-29T02:25:43;4.10;;;1.20;;
75810;SDS011;64449;50.016;19.954;2024-03-29T02:28:09;1.90;;;0.80;;
75810;SDS011;64449;50.016;19.954;2024-03-29T02:30:34;2.70;;;1.10;;
75810;SDS011;64449;50.016;19.954;2024-03-29T02:33:00;2.90;;;1.10;;
75810;SDS011;64449;50.016;19.954;2024-03-29T02:35:27;1.30;;;0.70;;
75810;SDS011;64449;50.016;19.954;2024-03-29T02:37:52;2.20;;;0.90;;
75810;SDS011;64449;50.016;19.954;2024-03-29T02:40:18;1.70;;;0.80;;
75810;SDS011;64449;50.016;19.954;2024-03-29T02:42:44;1.90;;;0.80;;
75810;SDS011;64449;50.016;19.954;2024-03-29T02:45:10;2.90;;;0.70;;
75810;SDS011;64449;50.016;19.954;2024-03-29T02:47:36;2.40;;;0.60;;
75810;SDS011;64449;50.016;19.954;2024-03-29T02:50:01;1.30;;;0.60;;
75810;SDS011;64449;50.016;19.954;2024-03-29T02:52:28;2.10;;;0.80;;
75810;SDS011;64449;50.016;19.954;2024-03-29T02:54:54;1.40;;;0.50;;
75810;SDS011;64449;50.016;19.954;2024-03-29T02:57:19;2.10;;;0.80;;
75810;SDS011;64449;50.016;19.954;2024-03-29T02:59:44;1.60;;;0.80;;
75810;SDS011;64449;50.016;19.954;2024-03-29T03:02:10;1.70;;;0.60;;
75810;SDS011;64449;50.016;19.954;2024-03-29T03:04:35;1.50;;;0.80;;
75810;SDS011;64449;50.016;19.954;2024-03-29T03:07:01;2.30;;;0.70;;
75810;SDS011;64449;50.016;19.954;2024-03-29T03:09:45;1.40;;;0.70;;
75810;SDS011;64449;50.016;19.954;2024-03-29T03:12:29;2.70;;;0.70;;
75810;SDS011;64449;50.016;19.954;2024-03-29T03:14:56;3.10;;;0.70;;
75810;SDS011;64449;50.016;19.954;2024-03-29T03:17:23;1.40;;;0.50;;
75810;SDS011;64449;50.016;19.954;2024-03-29T03:19:53;2.60;;;0.80;;
75810;SDS011;64449;50.016;19.954;2024-03-29T03:22:18;2.60;;;0.70;;
75810;SDS011;64449;50.016;19.954;2024-03-29T03:24:44;1.60;;;0.60;;
75810;SDS011;64449;50.016;19.954;2024-03-29T03:27:10;1.80;;;0.80;;
75810;SDS011;64449;50.016;19.954;2024-03-29T03:29:36;2.00;;;0.80;;
75810;SDS011;64449;50.016;19.954;2024-03-29T03:32:01;2.10;;;0.80;;
75810;SDS011;64449;50.016;19.954;2024-03-29T03:34:27;2.70;;;0.70;;
75810;SDS011;64449;50.016;19.954;2024-03-29T03:36:53;1.40;;;0.60;;
75810;SDS011;64449;50.016;19.954;2024-03-29T03:39:18;6.00;;;1.00;;
75810;SDS011;64449;50.016;19.954;2024-03-29T03:41:44;2.80;;;0.80;;
75810;SDS011;64449;50.016;19.954;2024-03-29T03:44:09;1.70;;;0.70;;
75810;SDS011;64449;50.016;19.954;2024-03-29T03:46:35;1.50;;;0.70;;
75810;SDS011;64449;50.016;19.954;2024-03-29T03:49:00;2.50;;;1.00;;
75810;SDS011;64449;50.016;19.954;2024-03-29T03:51:26;2.30;;;0.70;;
75810;SDS011;64449;50.016;19.954;2024-03-29T03:53:51;1.40;;;0.70;;
75810;SDS011;64449;50.016;19.954;2024-03-29T03:56:17;2.60;;;0.80;;
75810;SDS011;64449;50.016;19.954;2024-03-29T03:58:44;2.00;;;1.00;;
75810;SDS011;64449;50.016;19.954;2024-03-29T04:01:10;3.00;;;0.70;;
75810;SDS011;64449;50.016;19.954;2024-03-29T04:03:35;3.00;;;0.80;;
75810;SDS011;64449;50.016;19.954;2024-03-29T04:06:04;2.40;;;0.80;;
75810;SDS011;64449;50.016;19.954;2024-03-29T04:08:30;3.00;;;1.10;;
75810;SDS011;64449;50.016;19.954;2024-03-29T04:10:56;2.10;;;0.90;;
75810;SDS011;64449;50.016;19.954;2024-03-29T04:13:21;1.30;;;0.60;;
75810;SDS011;64449;50.016;19.954;2024-03-29T04:15:47;2.60;;;1.10;;
75810;SDS011;64449;50.016;19.954;2024-03-29T04:18:13;3.60;;;1.00;;
75810;SDS011;64449;50.016;19.954;2024-03-29T04:20:38;2.20;;;1.00;;
75810;SDS011;64449;50.016;19.954;2024-03-29T04:23:04;2.20;;;1.10;;
75810;SDS011;64449;50.016;19.954;2024-03-29T04:25:32;2.60;;;0.80;;
75810;SDS011;64449;50.016;19.954;2024-03-29T04:28:00;2.80;;;1.00;;
75810;SDS011;64449;50.016;19.954;2024-03-29T04:30:26;1.30;;;0.70;;
75810;SDS011;64449;50.016;19.954;2024-03-29T04:32:51;2.30;;;1.00;;
75810;SDS011;64449;50.016;19.954;2024-03-29T04:35:17;2.50;;;1.30;;
75810;SDS011;64449;50.016;19.954;2024-03-29T04:37:42;3.60;;;1.10;;
75810;SDS011;64449;50.016;19.954;2024-03-29T04:40:08;3.90;;;1.50;;
75810;SDS011;64449;50.016;19.954;2024-03-29T04:42:34;3.40;;;1.00;;
75810;SDS011;64449;50.016;19.954;2024-03-29T04:44:59;3.70;;;1.30;;
75810;SDS011;64449;50.016;19.954;2024-03-29T04:47:26;3.70;;;1.50;;
75810;SDS011;64449;50.016;19.954;2024-03-29T04:49:51;3.60;;;1.40;;
75810;SDS011;64449;50.016;19.954;2024-03-29T04:52:17;3.30;;;1.30;;
75810;SDS011;64449;50.016;19.954;2024-03-29T04:54:42;3.40;;;1.50;;
75810;SDS011;64449;50.016;19.954;2024-03-29T04:57:09;3.00;;;1.20;;
75810;SDS011;64449;50.016;19.954;2024-03-29T04:59:34;2.20;;;1.00;;
75810;SDS011;64449;50.016;19.954;2024-03-29T05:02:00;3.80;;;0.80;;
75810;SDS011;64449;50.016;19.954;2024-03-29T05:04:27;2.00;;;1.00;;
75810;SDS011;64449;50.016;19.954;2024-03-29T05:06:56;1.90;;;0.70;;
75810;SDS011;64449;50.016;19.954;2024-03-29T05:09:23;2.30;;;0.80;;
75810;SDS011;64449;50.016;19.954;2024-03-29T05:11:49;2.70;;;1.10;;
75810;SDS011;64449;50.016;19.954;2024-03-29T05:14:16;2.20;;;1.20;;
75810;SDS011;64449;50.016;19.954;2024-03-29T05:16:45;2.80;;;0.90;;
75810;SDS011;64449;50.016;19.954;2024-03-29T05:19:12;1.90;;;0.70;;
75810;SDS011;64449;50.016;19.954;2024-03-29T05:21:38;4.00;;;0.90;;
75810;SDS011;64449;50.016;19.954;2024-03-29T05:24:05;1.80;;;1.00;;
75810;SDS011;64449;50.016;19.954;2024-03-29T05:26:31;3.10;;;0.70;;
75810;SDS011;64449;50.016;19.954;2024-03-29T05:28:56;1.60;;;0.60;;
75810;SDS011;64449;50.016;19.954;2024-03-29T05:31:25;2.20;;;0.70;;
75810;SDS011;64449;50.016;19.954;2024-03-29T05:33:50;1.40;;;0.60;;
75810;SDS011;64449;50.016;19.954;2024-03-29T05:36:19;1.70;;;0.60;;
75810;SDS011;64449;50.016;19.954;2024-03-29T05:38:45;1.40;;;0.60;;
75810;SDS011;64449;50.016;19.954;2024-03-29T05:41:11;0.80;;;0.40;;
75810;SDS011;64449;50.016;19.954;2024-03-29T05:43:38;2.20;;;0.70;;
75810;SDS011;64449;50.016;19.954;2024-03-29T05:46:05;4.00;;;0.50;;
75810;SDS011;64449;50.016;19.954;2024-03-29T05:48:30;1.40;;;0.60;;
75810;SDS011;64449;50.016;19.954;2024-03-29T05:50:56;1.80;;;0.50;;
75810;SDS011;64449;50.016;19.954;2024-03-29T05:53:21;1.70;;;0.50;;
75810;SDS011;64449;50.016;19.954;2024-03-29T05:55:47;1.20;;;0.40;;
75810;SDS011;64449;50.016;19.954;2024-03-29T05:58:12;0.90;;;0.50;;
75810;SDS011;64449;50.016;19.954;2024-03-29T06:00:45;1.60;;;1.20;;
75810;SDS011;64449;50.016;19.954;2024-03-29T06:03:12;1.60;;;0.50;;
75810;SDS011;64449;50.016;19.954;2024-03-29T06:05:39;1.80;;;0.80;;
75810;SDS011;64449;50.016;19.954;2024-03-29T06:08:07;1.30;;;0.60;;
75810;SDS011;64449;50.016;19.954;2024-03-29T06:10:33;1.80;;;0.60;;
75810;SDS011;64449;50.016;19.954;2024-03-29T06:12:59;1.30;;;0.50;;
75810;SDS011;64449;50.016;19.954;2024-03-29T06:15:43;1.30;;;0.50;;
75810;SDS011;64449;50.016;19.954;2024-03-29T06:18:27;4.10;;;2.10;;
75810;SDS011;64449;50.016;19.954;2024-03-29T06:20:52;1.40;;;0.70;;
75810;SDS011;64449;50.016;19.954;2024-03-29T06:23:18;2.10;;;0.40;;
75810;SDS011;64449;50.016;19.954;2024-03-29T06:25:44;1.10;;;0.40;;
75810;SDS011;64449;50.016;19.954;2024-03-29T06:28:11;1.10;;;0.60;;
75810;SDS011;64449;50.016;19.954;2024-03-29T06:30:38;1.20;;;0.50;;
75810;SDS011;64449;50.016;19.954;2024-03-29T06:33:03;1.10;;;0.50;;
75810;SDS011;64449;50.016;19.954;2024-03-29T06:35:30;0.80;;;0.40;;
75810;SDS011;64449;50.016;19.954;2024-03-29T06:37:56;0.90;;;0.50;;
75810;SDS011;64449;50.016;19.954;2024-03-29T06:40:22;1.40;;;0.60;;
75810;SDS011;64449;50.016;19.954;2024-03-29T06:42:48;2.20;;;0.60;;
75810;SDS011;64449;50.016;19.954;2024-03-29T06:45:13;1.60;;;0.70;;
75810;SDS011;64449;50.016;19.954;2024-03-29T06:47:39;2.10;;;0.90;;
75810;SDS011;64449;50.016;19.954;2024-03-29T06:50:04;1.90;;;0.50;;
75810;SDS011;64449;50.016;19.954;2024-03-29T06:52:30;1.20;;;0.60;;
75810;SDS011;64449;50.016;19.954;2024-03-29T06:54:56;1.90;;;0.60;;
75810;SDS011;64449;50.016;19.954;2024-03-29T06:57:21;2.40;;;0.80;;
75810;SDS011;64449;50.016;19.954;2024-03-29T06:59:51;2.90;;;0.80;;
75810;SDS011;64449;50.016;19.954;2024-03-29T07:02:16;1.90;;;0.60;;
75810;SDS011;64449;50.016;19.954;2024-03-29T07:04:42;1.30;;;0.60;;
75810;SDS011;64449;50.016;19.954;2024-03-29T07:07:07;0.90;;;0.50;;
75810;SDS011;64449;50.016;19.954;2024-03-29T07:09:33;1.70;;;0.50;;
75810;SDS011;64449;50.016;19.954;2024-03-29T07:11:58;2.70;;;0.90;;
75810;SDS011;64449;50.016;19.954;2024-03-29T07:14:24;2.40;;;0.70;;
75810;SDS011;64449;50.016;19.954;2024-03-29T07:16:51;1.80;;;0.70;;
75810;SDS011;64449;50.016;19.954;2024-03-29T07:19:17;1.50;;;0.50;;
75810;SDS011;64449;50.016;19.954;2024-03-29T07:21:44;1.30;;;0.60;;
75810;SDS011;64449;50.016;19.954;2024-03-29T07:24:11;2.60;;;0.70;;
75810;SDS011;64449;50.016;19.954;2024-03-29T07:26:38;2.30;;;0.40;;
75810;SDS011;64449;50.016;19.954;2024-03-29T07:29:04;1.60;;;0.60;;
75810;SDS011;64449;50.016;19.954;2024-03-29T07:31:32;2.00;;;0.60;;
75810;SDS011;64449;50.016;19.954;2024-03-29T07:33:58;2.10;;;0.40;;
75810;SDS011;64449;50.016;19.954;2024-03-29T07:36:23;1.80;;;0.50;;
75810;SDS011;64449;50.016;19.954;2024-03-29T07:38:51;1.40;;;0.30;;
75810;SDS011;64449;50.016;19.954;2024-03-29T07:41:17;0.80;;;0.40;;
75810;SDS011;64449;50.016;19.954;2024-03-29T07:43:55;1.50;;;0.40;;
75810;SDS011;64449;50.016;19.954;2024-03-29T07:46:27;1.20;;;0.50;;
75810;SDS011;64449;50.016;19.954;2024-03-29T07:48:53;1.80;;;0.60;;
75810;SDS011;64449;50.016;19.954;2024-03-29T07:51:18;1.80;;;0.50;;
75810;SDS011;64449;50.016;19.954;2024-03-29T07:53:44;1.20;;;0.30;;
75810;SDS011;64449;50.016;19.954;2024-03-29T07:56:09;1.00;;;0.40;;
75810;SDS011;64449;50.016;19.954;2024-03-29T07:58:35;1.40;;;0.40;;
75810;SDS011;64449;50.016;19.954;2024-03-29T08:01:00;1.90;;;0.50;;
75810;SDS011;64449;50.016;19.954;2024-03-29T08:03:26;1.10;;;0.40;;
75810;SDS011;64449;50.016;19.954;2024-03-29T08:06:01;2.20;;;0.50;;
75810;SDS011;64449;50.016;19.954;2024-03-29T08:08:31;1.30;;;0.50;;
75810;SDS011;64449;50.016;19.954;2024-03-29T08:10:57;1.10;;;0.40;;
75810;SDS011;64449;50.016;19.954;2024-03-29T08:13:24;1.20;;;0.30;;
75810;SDS011;64449;50.016;19.954;2024-03-29T08:15:56;0.30;;;0.20;;
75810;SDS011;64449;50.016;19.954;2024-03-29T08:18:23;0.90;;;0.30;;
75810;SDS011;64449;50.016;19.954;2024-03-29T08:20:48;0.70;;;0.30;;
75810;SDS011;64449;50.016;19.954;2024-03-29T08:23:13;1.10;;;0.40;;
75810;SDS011;64449;50.016;19.954;2024-03-29T08:25:39;1.20;;;0.30;;
75810;SDS011;64449;50.016;19.954;2024-03-29T08:28:04;1.70;;;0.50;;
75810;SDS011;64449;50.016;19.954;2024-03-29T08:30:30;0.90;;;0.30;;
75810;SDS011;64449;50.016;19.954;2024-03-29T08:33:03;0.80;;;0.30;;
75810;SDS011;64449;50.016;19.954;2024-03-29T08:35:35;2.00;;;0.60;;
75810;SDS011;64449;50.016;19.954;2024-03-29T08:38:01;1.60;;;0.80;;
75810;SDS011;64449;50.016;19.954;2024-03-29T08:40:27;1.50;;;0.40;;
75810;SDS011;64449;50.016;19.954;2024-03-29T08:42:54;2.00;;;0.70;;
75810;SDS011;64449;50.016;19.954;2024-03-29T08:45:21;1.50;;;0.50;;
75810;SDS011;64449;50.016;19.954;2024-03-29T08:47:47;1.00;;;0.30;;
75810;SDS011;64449;50.016;19.954;2024-03-29T08:50:13;1.70;;;0.40;;
75810;SDS011;64449;50.016;19.954;2024-03-29T08:52:39;2.10;;;0.50;;
75810;SDS011;64449;50.016;19.954;2024-03-29T08:55:05;1.20;;;0.50;;
75810;SDS011;64449;50.016;19.954;2024-03-29T08:57:32;1.60;;;0.40;;
75810;SDS011;64449;50.016;19.954;2024-03-29T08:59:58;1.90;;;0.40;;
75810;SDS011;64449;50.016;19.954;2024-03-29T09:02:23;1.10;;;0.40;;
75810;SDS011;64449;50.016;19.954;2024-03-29T09:04:49;0.80;;;0.20;;
75810;SDS011;64449;50.016;19.954;2024-03-29T09:07:14;1.10;;;0.30;;
75810;SDS011;64449;50.016;19.954;2024-03-29T09:09:40;1.70;;;0.30;;
75810;SDS011;64449;50.016;19.954;2024-03-29T09:12:10;1.30;;;0.50;;
75810;SDS011;64449;50.016;19.954;2024-03-29T09:14:35;2.20;;;0.40;;
75810;SDS011;64449;50.016;19.954;2024-03-29T09:17:01;1.10;;;0.40;;
75810;SDS011;64449;50.016;19.954;2024-03-29T09:19:29;1.40;;;0.50;;
75810;SDS011;64449;50.016;19.954;2024-03-29T09:21:56;0.80;;;0.40;;
75810;SDS011;64449;50.016;19.954;2024-03-29T09:24:21;2.10;;;0.50;;
75810;SDS011;64449;50.016;19.954;2024-03-29T09:26:50;1.60;;;0.30;;
75810;SDS011;64449;50.016;19.954;2024-03-29T09:29:16;0.70;;;0.30;;
75810;SDS011;64449;50.016;19.954;2024-03-29T09:31:43;0.90;;;0.40;;
75810;SDS011;64449;50.016;19.954;2024-03-29T09:34:08;1.60;;;0.50;;
75810;SDS011;64449;50.016;19.954;2024-03-29T09:36:34;0.40;;;0.20;;
75810;SDS011;64449;50.016;19.954;2024-03-29T09:38:59;0.50;;;0.20;;
75810;SDS011;64449;50.016;19.954;2024-03-29T09:41:25;0.80;;;0.30;;
75810;SDS011;64449;50.016;19.954;2024-03-29T09:43:54;0.80;;;0.40;;
75810;SDS011;64449;50.016;19.954;2024-03-29T09:46:24;0.80;;;0.30;;
75810;SDS011;64449;50.016;19.954;2024-03-29T09:48:52;0.70;;;0.30;;
75810;SDS011;64449;50.016;19.954;2024-03-29T09:51:20;1.30;;;0.40;;
75810;SDS011;64449;50.016;19.954;2024-03-29T09:53:46;0.60;;;0.20;;
75810;SDS011;64449;50.016;19.954;2024-03-29T09:56:13;1.70;;;0.40;;
75810;SDS011;64449;50.016;19.954;2024-03-29T09:58:40;0.80;;;0.20;;
75810;SDS011;64449;50.016;19.954;2024-03-29T10:01:06;0.80;;;0.20;;
75810;SDS011;64449;50.016;19.954;2024-03-29T10:03:37;0.90;;;0.30;;
75810;SDS011;64449;50.016;19.954;2024-03-29T10:06:05;0.70;;;0.20;;
75810;SDS011;64449;50.016;19.954;2024-03-29T10:08:33;1.70;;;0.70;;
75810;SDS011;64449;50.016;19.954;2024-03-29T10:11:00;0.80;;;0.40;;
75810;SDS011;64449;50.016;19.954;2024-03-29T10:13:26;1.10;;;0.40;;
75810;SDS011;64449;50.016;19.954;2024-03-29T10:15:52;1.30;;;0.30;;
75810;SDS011;64449;50.016;19.954;2024-03-29T10:18:20;0.60;;;0.30;;
75810;SDS011;64449;50.016;19.954;2024-03-29T10:20:47;1.10;;;0.40;;
75810;SDS011;64449;50.016;19.954;2024-03-29T10:23:14;1.00;;;0.40;;
75810;SDS011;64449;50.016;19.954;2024-03-29T10:25:39;1.70;;;0.80;;
75810;SDS011;64449;50.016;19.954;2024-03-29T10:28:05;2.20;;;0.50;;
75810;SDS011;64449;50.016;19.954;2024-03-29T10:30:30;0.50;;;0.20;;
75810;SDS011;64449;50.016;19.954;2024-03-29T10:32:56;1.70;;;0.40;;
75810;SDS011;64449;50.016;19.954;2024-03-29T10:35:22;1.30;;;0.50;;
75810;SDS011;64449;50.016;19.954;2024-03-29T10:37:51;0.90;;;0.40;;
75810;SDS011;64449;50.016;19.954;2024-03-29T10:40:18;1.10;;;0.30;;
75810;SDS011;64449;50.016;19.954;2024-03-29T10:42:46;1.20;;;0.40;;
75810;SDS011;64449;50.016;19.954;2024-03-29T10:45:13;1.20;;;0.40;;
75810;SDS011;64449;50.016;19.954;2024-03-29T10:47:40;1.50;;;0.40;;
75810;SDS011;64449;50.016;19.954;2024-03-29T10:50:10;1.30;;;0.40;;
75810;SDS011;64449;50.016;19.954;2024-03-29T10:52:38;1.70;;;0.40;;
75810;SDS011;64449;50.016;19.954;2024-03-29T10:55:07;1.00;;;0.40;;
75810;SDS011;64449;50.016;19.954;2024-03-29T10:57:33;1.40;;;0.50;;
75810;SDS011;64449;50.016;19.954;2024-03-29T11:00:05;1.00;;;0.40;;
75810;SDS011;64449;50.016;19.954;2024-03-29T11:02:48;1.30;;;0.50;;
75810;SDS011;64449;50.016;19.954;2024-03-29T11:05:22;0.60;;;0.30;;
75810;SDS011;64449;50.016;19.954;2024-03-29T11:07:50;0.70;;;0.20;;
75810;SDS011;64449;50.016;19.954;2024-03-29T11:15:59;1.90;;;0.50;;
75810;SDS011;64449;50.016;19.954;2024-03-29T11:18:26;0.80;;;0.30;;
75810;SDS011;64449;50.016;19.954;2024-03-29T11:20:52;0.30;;;0.10;;
75810;SDS011;64449;50.016;19.954;2024-03-29T11:23:19;0.50;;;0.20;;
75810;SDS011;64449;50.016;19.954;2024-03-29T11:25:50;0.90;;;0.20;;
75810;SDS011;64449;50.016;19.954;2024-03-29T11:28:26;0.80;;;0.40;;
75810;SDS011;64449;50.016;19.954;2024-03-29T11:31:00;0.60;;;0.30;;
75810;SDS011;64449;50.016;19.954;2024-03-29T11:33:30;0.60;;;0.20;;
75810;SDS011;64449;50.016;19.954;2024-03-29T11:36:00;0.50;;;0.30;;
75810;SDS011;64449;50.016;19.954;2024-03-29T11:38:34;0.50;;;0.20;;
75810;SDS011;64449;50.016;19.954;2024-03-29T11:41:07;0.60;;;0.20;;
75810;SDS011;64449;50.016;19.954;2024-03-29T11:43:37;0.70;;;0.10;;
75810;SDS011;64449;50.016;19.954;2024-03-29T11:46:07;0.30;;;0.20;;
75810;SDS011;64449;50.016;19.954;2024-03-29T11:48:33;0.80;;;0.40;;
75810;SDS011;64449;50.016;19.954;2024-03-29T11:51:01;0.90;;;0.30;;
75810;SDS011;64449;50.016;19.954;2024-03-29T11:53:28;0.80;;;0.30;;
75810;SDS011;64449;50.016;19.954;2024-03-29T11:55:55;0.60;;;0.10;;
75810;SDS011;64449;50.016;19.954;2024-03-29T11:58:24;0.40;;;0.10;;
75810;SDS011;64449;50.016;19.954;2024-03-29T12:00:52;0.70;;;0.30;;
75810;SDS011;64449;50.016;19.954;2024-03-29T12:03:19;1.20;;;0.20;;
75810;SDS011;64449;50.016;19.954;2024-03-29T12:05:47;0.80;;;0.20;;
75810;SDS011;64449;50.016;19.954;2024-03-29T12:08:14;1.10;;;0.30;;
75810;SDS011;64449;50.016;19.954;2024-03-29T12:10:40;0.60;;;0.20;;
75810;SDS011;64449;50.016;19.954;2024-03-29T12:13:06;0.50;;;0.20;;
75810;SDS011;64449;50.016;19.954;2024-03-29T12:15:33;0.30;;;0.10;;
75810;SDS011;64449;50.016;19.954;2024-03-29T12:18:02;0.90;;;0.40;;
75810;SDS011;64449;50.016;19.954;2024-03-29T12:20:30;1.30;;;0.70;;
75810;SDS011;64449;50.016;19.954;2024-03-29T12:23:02;2.90;;;1.70;;
75810;SDS011;64449;50.016;19.954;2024-03-29T12:25:29;0.70;;;0.30;;
75810;SDS011;64449;50.016;19.954;2024-03-29T12:27:56;0.50;;;0.20;;
75810;SDS011;64449;50.016;19.954;2024-03-29T12:30:23;0.80;;;0.30;;
75810;SDS011;64449;50.016;19.954;2024-03-29T12:32:59;0.50;;;0.20;;
75810;SDS011;64449;50.016;19.954;2024-03-29T12:35:29;0.50;;;0.20;;
75810;SDS011;64449;50.016;19.954;2024-03-29T12:37:57;1.20;;;0.40;;
75810;SDS011;64449;50.016;19.954;2024-03-29T12:40:24;0.70;;;0.30;;
75810;SDS011;64449;50.016;19.954;2024-03-29T12:42:51;0.60;;;0.30;;
75810;SDS011;64449;50.016;19.954;2024-03-29T12:45:18;0.50;;;0.20;;
75810;SDS011;64449;50.016;19.954;2024-03-29T12:47:44;0.90;;;0.30;;
75810;SDS011;64449;50.016;19.954;2024-03-29T12:50:32;0.60;;;0.20;;
75810;SDS011;64449;50.016;19.954;2024-03-29T12:53:01;0.50;;;0.20;;
75810;SDS011;64449;50.016;19.954;2024-03-29T12:55:33;0.90;;;0.30;;
75810;SDS011;64449;50.016;19.954;2024-03-29T12:58:03;1.00;;;0.30;;
75810;SDS011;64449;50.016;19.954;2024-03-29T13:00:33;1.00;;;0.20;;
75810;SDS011;64449;50.016;19.954;2024-03-29T13:02:59;1.10;;;0.40;;
75810;SDS011;64449;50.016;19.954;2024-03-29T13:05:26;0.20;;;0.20;;
75810;SDS011;64449;50.016;19.954;2024-03-29T13:07:53;0.90;;;0.30;;
75810;SDS011;64449;50.016;19.954;2024-03-29T13:10:18;0.90;;;0.40;;
75810;SDS011;64449;50.016;19.954;2024-03-29T13:12:47;0.80;;;0.30;;
75810;SDS011;64449;50.016;19.954;2024-03-29T13:15:16;1.60;;;0.60;;
75810;SDS011;64449;50.016;19.954;2024-03-29T13:17:42;1.20;;;0.40;;
75810;SDS011;64449;50.016;19.954;2024-03-29T13:20:08;0.80;;;0.40;;
75810;SDS011;64449;50.016;19.954;2024-03-29T13:22:35;0.50;;;0.30;;
75810;SDS011;64449;50.016;19.954;2024-03-29T13:25:02;1.10;;;0.50;;
75810;SDS011;64449;50.016;19.954;2024-03-29T13:27:29;0.60;;;0.40;;
75810;SDS011;64449;50.016;19.954;2024-03-29T13:29:54;0.50;;;0.30;;
75810;SDS011;64449;50.016;19.954;2024-03-29T13:32:20;1.60;;;0.60;;
75810;SDS011;64449;50.016;19.954;2024-03-29T13:34:45;1.20;;;0.60;;
75810;SDS011;64449;50.016;19.954;2024-03-29T13:37:11;1.00;;;0.50;;
75810;SDS011;64449;50.016;19.954;2024-03-29T13:39:36;1.00;;;0.40;;
75810;SDS011;64449;50.016;19.954;2024-03-29T13:42:02;0.80;;;0.40;;
75810;SDS011;64449;50.016;19.954;2024-03-29T13:44:27;1.30;;;0.50;;
75810;SDS011;64449;50.016;19.954;2024-03-29T13:46:53;0.80;;;0.40;;
75810;SDS011;64449;50.016;19.954;2024-03-29T13:49:18;1.00;;;0.40;;
75810;SDS011;64449;50.016;19.954;2024-03-29T13:51:47;0.70;;;0.30;;
75810;SDS011;64449;50.016;19.954;2024-03-29T13:54:13;1.80;;;0.50;;
75810;SDS011;64449;50.016;19.954;2024-03-29T13:56:39;1.50;;;0.60;;
75810;SDS011;64449;50.016;19.954;2024-03-29T13:59:04;0.80;;;0.30;;
75810;SDS011;64449;50.016;19.954;2024-03-29T14:01:29;1.30;;;0.60;;
75810;SDS011;64449;50.016;19.954;2024-03-29T14:03:55;1.50;;;0.60;;
75810;SDS011;64449;50.016;19.954;2024-03-29T14:06:21;2.90;;;0.70;;
75810;SDS011;64449;50.016;19.954;2024-03-29T14:08:47;1.30;;;0.40;;
75810;SDS011;64449;50.016;19.954;2024-03-29T14:11:12;1.10;;;0.40;;
75810;SDS011;64449;50.016;19.954;2024-03-29T14:13:39;2.20;;;0.60;;
75810;SDS011;64449;50.016;19.954;2024-03-29T14:16:06;1.40;;;0.40;;
75810;SDS011;64449;50.016;19.954;2024-03-29T14:18:31;2.60;;;0.60;;
75810;SDS011;64449;50.016;19.954;2024-03-29T14:20:57;2.50;;;0.50;;
75810;SDS011;64449;50.016;19.954;2024-03-29T14:23:22;2.00;;;0.40;;
75810;SDS011;64449;50.016;19.954;2024-03-29T14:25:50;1.90;;;0.40;;
75810;SDS011;64449;50.016;19.954;2024-03-29T14:28:16;1.40;;;0.40;;
75810;SDS011;64449;50.016;19.954;2024-03-29T14:30:41;2.10;;;0.60;;
75810;SDS011;64449;50.016;19.954;2024-03-29T14:33:07;1.20;;;0.50;;
75810;SDS011;64449;50.016;19.954;2024-03-29T14:35:34;1.50;;;0.50;;
75810;SDS011;64449;50.016;19.954;2024-03-29T14:38:00;1.50;;;0.50;;